Time;durP1;ratioP1;P1;durP2;ratioP2;P2;SDS_P1;SDS_P2;PMS_P1;PMS_P2;Temp;Humidity;BMP_temperature;BMP_pressure;BME280_temperature;BME280_humidity;BME280_pressure;Samples;Min_cycle;Max_cycle;Signal;HPM_P1;HPM_P2
2022/09/26 00:02:15;;;;;;;1.17;1.08;;;;;;;21.61;46.36;100768.75;5034424;28;20044;-71
2022/09/26 00:04:41;;;;;;;1.90;1.42;;;;;;;21.65;46.30;100759.41;5045171;28;20036;-71
2022/09/26 00:07:06;;;;;;;1.35;1.25;;;;;;;21.63;46.36;100756.94;5035397;28;20046;-71
2022/09/26 00:09:32;;;;;;;2.05;1.52;;;;;;;21.64;46.48;100753.28;5036263;28;20052;-70
2022/09/26 00:11:57;;;;;;;4.00;1.50;;;;;;;21.63;46.60;100741.03;5034184;28;20047;-71
2022/09/26 00:14:25;;;;;;;2.17;1.63;;;;;;;21.65;46.33;100740.84;5035585;28;20044;-71
2022/09/26 00:16:51;;;;;;;1.92;1.70;;;;;;;21.62;46.45;100731.47;5034280;28;20778;-71
2022/09/26 00:19:17;;;;;;;1.85;1.58;;;;;;;21.57;46.42;100720.63;5037992;28;20041;-71
2022/09/26 00:21:43;;;;;;;1.67;1.45;;;;;;;21.59;46.50;100715.94;5032336;28;20044;-71
2022/09/26 00:24:08;;;;;;;1.90;1.40;;;;;;;21.63;46.57;100711.06;5032572;28;20037;-72
2022/09/26 00:26:35;;;;;;;1.90;1.60;;;;;;;21.63;46.35;100698.66;5032877;28;20070;-71
2022/09/26 00:29:06;;;;;;;2.17;1.50;;;;;;;21.62;46.42;100696.19;5037369;28;20068;-71
2022/09/26 00:31:35;;;;;;;1.60;1.15;;;;;;;21.60;46.60;100688.44;5037347;28;20036;-71
2022/09/26 00:34:01;;;;;;;2.10;1.23;;;;;;;21.61;46.42;100687.44;5036164;28;20037;-71
2022/09/26 00:36:28;;;;;;;1.73;1.30;;;;;;;21.64;46.26;100675.63;5037866;28;20462;-72
2022/09/26 00:38:54;;;;;;;1.40;1.23;;;;;;;21.60;46.69;100675.19;5033660;28;20760;-71
2022/09/26 00:41:20;;;;;;;1.85;1.33;;;;;;;21.62;46.23;100665.22;5030928;28;20056;-71
2022/09/26 00:43:48;;;;;;;2.40;1.40;;;;;;;21.61;46.55;100666.22;5032748;28;20048;-71
2022/09/26 00:46:40;;;;;;;1.52;1.42;;;;;;;21.61;46.51;100654.81;5027593;28;20033;-71
2022/09/26 00:49:25;;;;;;;1.67;1.33;;;;;;;21.59;46.50;100649.72;5031557;28;21681;-71
2022/09/26 00:51:57;;;;;;;1.88;1.23;;;;;;;21.59;46.14;100638.28;5030093;28;20132;-70
2022/09/26 00:54:24;;;;;;;1.85;1.20;;;;;;;21.60;46.56;100637.28;5031590;28;20037;-71
2022/09/26 00:56:53;;;;;;;1.40;1.20;;;;;;;21.57;46.21;100632.38;5034676;28;22098;-71
2022/09/26 00:59:40;;;;;;;1.33;1.23;;;;;;;21.59;46.39;100625.03;5033846;28;20044;-71
2022/09/26 01:02:06;;;;;;;1.60;1.35;;;;;;;21.57;46.60;100617.28;5033511;28;20574;-71
2022/09/26 01:04:35;;;;;;;1.35;1.25;;;;;;;21.60;46.17;100618.72;5037119;28;20032;-71
2022/09/26 01:07:06;;;;;;;1.58;1.20;;;;;;;21.59;46.49;100611.78;5033485;28;20588;-71
2022/09/26 01:09:32;;;;;;;2.33;1.50;;;;;;;21.64;46.41;100610.19;5036557;28;20116;-71
2022/09/26 01:12:00;;;;;;;1.67;1.58;;;;;;;21.52;46.57;100582.59;5064384;28;20102;-72
2022/09/26 01:14:26;;;;;;;1.60;1.23;;;;;;;21.59;46.27;100585.31;5030542;28;20090;-71
2022/09/26 01:16:54;;;;;;;2.00;1.20;;;;;;;21.61;46.50;100588.56;5034278;28;20037;-71
2022/09/26 01:19:41;;;;;;;1.40;1.25;;;;;;;21.59;46.62;100583.47;5032183;28;20045;-71
2022/09/26 01:22:28;;;;;;;2.05;1.58;;;;;;;21.57;46.47;100579.38;5031591;28;20041;-71
2022/09/26 01:24:54;;;;;;;1.63;1.42;;;;;;;21.56;46.47;100578.56;5031158;28;20041;-71
2022/09/26 01:27:45;;;;;;;1.85;1.38;;;;;;;21.58;46.53;100570.41;5031375;28;20828;-71
2022/09/26 01:30:15;;;;;;;1.77;1.63;;;;;;;21.58;46.52;100568.59;5046200;28;20586;-71
2022/09/26 01:33:03;;;;;;;1.48;1.20;;;;;;;21.56;46.59;100567.16;5032698;28;20060;-71
2022/09/26 01:35:54;;;;;;;1.88;1.50;;;;;;;21.55;46.33;100563.69;5030425;28;20063;-71
2022/09/26 01:38:35;;;;;;;1.83;1.30;;;;;;;21.57;46.54;100552.88;5031437;28;20033;-70
2022/09/26 01:41:14;;;;;;;1.30;1.20;;;;;;;21.55;46.28;100549.63;5033673;28;20123;-71
2022/09/26 01:43:58;;;;;;;2.15;1.40;;;;;;;21.55;46.58;100547.78;5030777;28;20040;-71
2022/09/26 01:46:35;;;;;;;1.25;1.15;;;;;;;21.54;46.13;100546.13;5034843;28;20564;-71
2022/09/26 01:49:23;;;;;;;1.38;1.27;;;;;;;21.55;46.46;100544.31;5032353;28;20162;-71
2022/09/26 01:52:07;;;;;;;1.45;1.35;;;;;;;21.55;46.33;100539.84;5055577;28;20106;-72
2022/09/26 01:55:09;;;;;;;1.42;1.33;;;;;;;21.55;46.66;100534.53;5031443;28;20041;-71
2022/09/26 01:58:11;;;;;;;1.65;1.33;;;;;;;21.55;46.51;100526.59;5046041;28;20045;-71
2022/09/26 02:00:40;;;;;;;2.45;1.33;;;;;;;21.55;46.36;100529.25;5024541;28;20057;-71
2022/09/26 02:03:13;;;;;;;1.50;1.33;;;;;;;21.54;46.28;100521.47;5037067;28;20028;-71
2022/09/26 02:05:51;;;;;;;2.47;1.63;;;;;;;21.54;46.20;100508.22;5038235;28;20223;-73
2022/09/26 02:08:23;;;;;;;1.40;1.30;;;;;;;21.56;46.20;100501.72;5061724;28;20029;-70
2022/09/26 02:10:53;;;;;;;1.50;1.30;;;;;;;21.55;46.40;100508.03;5035667;28;20033;-72
2022/09/26 02:13:29;;;;;;;1.58;1.35;;;;;;;21.57;46.18;100494.59;5038292;28;20039;-72
2022/09/26 02:15:59;;;;;;;1.70;1.17;;;;;;;21.54;46.15;100497.63;5031061;28;20462;-72
2022/09/26 02:18:36;;;;;;;1.50;1.10;;;;;;;21.55;46.17;100492.16;5031041;28;20414;-71
2022/09/26 02:21:14;;;;;;;1.10;0.93;;;;;;;21.47;46.46;100478.25;5032238;28;20056;-72
2022/09/26 02:23:40;;;;;;;1.83;1.20;;;;;;;21.53;46.18;100488.03;5032105;28;20948;-72
2022/09/26 02:26:06;;;;;;;2.47;1.30;;;;;;;21.53;46.36;100480.09;5017735;28;20039;-72
2022/09/26 02:28:32;;;;;;;1.77;1.30;;;;;;;21.54;46.54;100484.38;5030376;28;20561;-72
2022/09/26 02:31:02;;;;;;;2.72;1.23;;;;;;;21.53;46.36;100474.78;5034639;28;20045;-72
2022/09/26 02:33:28;;;;;;;1.30;1.20;;;;;;;21.55;46.25;100473.59;5035368;28;20029;-72
2022/09/26 02:35:54;;;;;;;1.60;1.27;;;;;;;21.56;46.24;100477.06;5035773;28;20029;-72
2022/09/26 02:38:23;;;;;;;2.00;1.25;;;;;;;21.53;46.44;100466.84;5037526;28;20029;-72
2022/09/26 02:41:00;;;;;;;2.70;1.30;;;;;;;21.55;46.46;100465.66;5041272;28;20033;-71
2022/09/26 02:43:43;;;;;;;1.75;1.30;;;;;;;21.54;46.11;100469.28;5035842;28;20471;-71
2022/09/26 02:46:30;;;;;;;1.75;1.17;;;;;;;21.52;46.51;100458.06;5035525;28;20119;-71
2022/09/26 02:49:18;;;;;;;1.85;1.10;;;;;;;21.51;46.22;100461.75;5035116;28;20482;-72
2022/09/26 02:52:08;;;;;;;2.38;1.45;;;;;;;21.52;46.31;100457.25;5033550;28;20033;-71
2022/09/26 02:54:34;;;;;;;1.70;1.38;;;;;;;21.52;46.25;100450.13;5040239;28;20043;-70
2022/09/26 02:57:22;;;;;;;1.45;1.23;;;;;;;21.51;46.58;100443.19;5028583;28;20037;-71
2022/09/26 03:00:01;;;;;;;1.38;1.02;;;;;;;21.52;46.45;100436.88;5039966;28;20036;-71
2022/09/26 03:02:46;;;;;;;2.97;1.52;;;;;;;21.52;46.64;100436.88;5038641;28;20044;-71
2022/09/26 03:05:20;;;;;;;1.60;1.50;;;;;;;21.48;46.30;100419.75;5038335;28;20117;-72
2022/09/26 03:08:03;;;;;;;1.00;1.00;;;;;;;21.48;46.32;100418.94;5040215;28;20033;-72
2022/09/26 03:10:30;;;;;;;1.67;1.33;;;;;;;21.47;46.45;100412.84;5040767;28;20695;-70
2022/09/26 03:13:01;;;;;;;1.75;1.30;;;;;;;21.48;46.61;100403.06;5037239;28;20030;-71
2022/09/26 03:15:28;;;;;;;2.72;1.35;;;;;;;21.50;46.52;100404.47;5040567;28;20038;-71
2022/09/26 03:17:55;;;;;;;1.33;1.08;;;;;;;21.49;46.32;100389.59;5035622;28;20110;-70
2022/09/26 03:20:22;;;;;;;1.45;1.05;;;;;;;21.49;46.26;100386.97;5033905;28;20438;-71
2022/09/26 03:22:50;;;;;;;1.30;1.20;;;;;;;21.47;46.34;100375.75;5041384;28;20130;-71
2022/09/26 03:25:23;;;;;;;1.77;1.20;;;;;;;21.42;46.48;100362.31;5032257;28;20052;-71
2022/09/26 03:27:57;;;;;;;1.95;1.42;;;;;;;21.47;46.62;100357.22;5035662;28;20051;-71
2022/09/26 03:30:38;;;;;;;2.10;1.40;;;;;;;21.46;46.52;100355.56;5049332;28;20733;-72
2022/09/26 03:33:21;;;;;;;1.92;1.35;;;;;;;21.49;46.34;100355.16;5033527;28;20533;-72
2022/09/26 03:35:47;;;;;;;1.52;1.17;;;;;;;21.50;46.54;100342.75;5045567;28;20044;-71
2022/09/26 03:38:13;;;;;;;2.13;1.55;;;;;;;21.48;46.50;100344.78;5045011;28;20041;-72
2022/09/26 03:40:44;;;;;;;1.27;1.15;;;;;;;21.47;46.56;100348.44;5046645;28;20738;-71
2022/09/26 03:43:29;;;;;;;1.23;1.13;;;;;;;21.45;46.36;100348.66;5049136;28;20653;-71
2022/09/26 03:45:55;;;;;;;1.85;1.30;;;;;;;21.47;46.16;100343.16;5032347;28;20029;-72
2022/09/26 03:48:25;;;;;;;1.30;1.20;;;;;;;21.46;46.31;100336.22;5045774;28;20045;-72
2022/09/26 03:50:51;;;;;;;2.40;1.45;;;;;;;21.48;46.17;100334.19;5043677;28;20102;-72
2022/09/26 03:53:16;;;;;;;1.58;1.25;;;;;;;21.47;46.49;100317.47;5034950;28;20044;-71
2022/09/26 03:55:42;;;;;;;1.10;1.00;;;;;;;21.47;46.29;100317.47;5029923;28;20071;-72
2022/09/26 03:58:07;;;;;;;1.20;1.10;;;;;;;21.46;46.25;100313.19;5045145;28;20233;-72
2022/09/26 04:00:38;;;;;;;2.47;1.50;;;;;;;21.45;46.39;100308.09;5032836;28;20037;-72
2022/09/26 04:03:05;;;;;;;1.85;1.27;;;;;;;21.45;46.29;100306.25;5038466;28;20037;-71
2022/09/26 04:05:36;;;;;;;1.23;1.00;;;;;;;21.47;46.39;100300.75;5031890;28;20040;-71
2022/09/26 04:08:04;;;;;;;1.50;1.40;;;;;;;21.46;46.46;100289.34;5049905;28;20936;-71
2022/09/26 04:10:30;;;;;;;1.30;1.17;;;;;;;21.45;46.20;100277.13;5033854;28;20035;-70
2022/09/26 04:12:56;;;;;;;1.75;1.63;;;;;;;21.45;46.19;100271.00;5030690;28;20032;-71
2022/09/26 04:15:23;;;;;;;2.05;1.10;;;;;;;21.45;46.55;100268.38;5045193;28;20549;-71
2022/09/26 04:17:56;;;;;;;1.83;1.23;;;;;;;21.44;46.57;100264.91;5030221;28;20037;-71
2022/09/26 04:20:23;;;;;;;2.03;1.42;;;;;;;21.44;46.59;100264.09;5049508;28;20032;-71
2022/09/26 04:22:49;;;;;;;1.73;1.23;;;;;;;21.45;46.36;100255.94;5032176;28;20083;-71
2022/09/26 04:25:15;;;;;;;2.40;1.38;;;;;;;21.40;46.44;100243.31;5045765;28;20037;-71
2022/09/26 04:27:41;;;;;;;2.50;1.63;;;;;;;21.42;46.28;100243.91;5030512;28;20052;-71
2022/09/26 04:30:08;;;;;;;1.25;1.13;;;;;;;21.39;46.36;100233.75;5050416;28;20494;-71
2022/09/26 04:32:41;;;;;;;2.75;1.67;;;;;;;21.44;46.29;100230.47;5031113;28;20044;-71
2022/09/26 04:35:26;;;;;;;1.63;1.20;;;;;;;21.39;46.51;100220.50;5047508;28;20043;-71
2022/09/26 04:37:52;;;;;;;1.38;1.27;;;;;;;21.44;46.36;100211.94;5026234;28;20037;-71
2022/09/26 04:40:18;;;;;;;1.42;1.20;;;;;;;21.41;46.39;100207.84;5028286;28;20032;-71
2022/09/26 04:42:57;;;;;;;1.27;1.17;;;;;;;21.44;46.17;100217.22;5019612;28;20068;-72
2022/09/26 04:45:24;;;;;;;2.63;1.40;;;;;;;21.40;46.79;100206.22;5015862;28;20029;-71
2022/09/26 04:47:50;;;;;;;1.08;1.02;;;;;;;21.40;46.21;100203.59;5013855;28;20091;-71
2022/09/26 04:50:45;;;;;;;1.40;1.30;;;;;;;21.41;46.48;100199.91;5030876;28;20779;-71
2022/09/26 04:53:11;;;;;;;1.02;0.93;;;;;;;21.39;46.33;100194.00;5032650;28;20041;-71
2022/09/26 04:56:11;;;;;;;1.13;1.05;;;;;;;21.36;46.65;100178.53;5011637;28;20045;-72
2022/09/26 04:58:37;;;;;;;1.67;1.08;;;;;;;21.40;46.62;100178.94;5013897;28;20053;-72
2022/09/26 05:01:08;;;;;;;1.42;1.25;;;;;;;21.39;46.42;100174.66;5015716;28;20387;-73
2022/09/26 05:03:51;;;;;;;1.15;1.10;;;;;;;21.40;46.33;100176.28;5015462;28;20076;-71
2022/09/26 05:06:17;;;;;;;1.63;1.25;;;;;;;21.38;46.67;100165.09;5027560;28;20049;-71
2022/09/26 05:08:45;;;;;;;1.73;1.02;;;;;;;21.38;46.43;100151.84;5030910;28;20035;-71
2022/09/26 05:11:13;;;;;;;1.20;1.10;;;;;;;21.42;46.39;100150.41;5013125;28;20091;-71
2022/09/26 05:13:39;;;;;;;2.20;1.20;;;;;;;21.32;46.68;100142.88;5030575;28;20028;-71
2022/09/26 05:16:09;;;;;;;1.05;0.95;;;;;;;21.39;46.63;100145.53;5033788;28;20060;-71
2022/09/26 05:18:38;;;;;;;1.90;1.23;;;;;;;21.36;46.40;100136.16;5030866;28;20465;-71
2022/09/26 05:21:04;;;;;;;1.52;1.30;;;;;;;21.36;46.65;100132.66;5011948;28;20124;-73
2022/09/26 05:26:22;;;;;;;1.50;1.40;;;;;;;21.37;46.36;100129.03;5031635;28;20045;-71
2022/09/26 05:28:51;;;;;;;1.27;1.13;;;;;;;21.36;46.57;100124.72;5030834;28;20037;-72
2022/09/26 05:31:25;;;;;;;1.50;1.10;;;;;;;21.38;46.37;100131.47;5015506;28;20029;-71
2022/09/26 05:33:50;;;;;;;1.13;1.02;;;;;;;21.37;46.58;100116.59;5029025;28;20108;-72
2022/09/26 05:36:17;;;;;;;1.10;1.10;;;;;;;21.34;46.38;100114.34;5015843;28;20047;-72
2022/09/26 05:38:44;;;;;;;1.65;1.35;;;;;;;21.36;46.31;100109.69;5022952;28;20051;-72
2022/09/26 05:41:12;;;;;;;1.63;1.30;;;;;;;21.34;46.65;100108.22;5015950;28;20036;-73
2022/09/26 05:43:37;;;;;;;1.48;1.10;;;;;;;21.36;46.52;100106.19;5035066;28;20036;-72
2022/09/26 05:46:09;;;;;;;1.33;1.00;;;;;;;21.36;46.67;100096.44;5031552;28;20483;-72
2022/09/26 05:48:39;;;;;;;1.48;1.20;;;;;;;21.34;46.57;100095.78;5032789;28;20029;-72
2022/09/26 05:51:13;;;;;;;1.30;1.20;;;;;;;21.36;46.60;100091.13;5031040;28;20041;-71
2022/09/26 05:53:44;;;;;;;1.92;1.40;;;;;;;21.34;46.41;100087.03;5027799;28;20040;-72
2022/09/26 05:56:12;;;;;;;1.10;1.08;;;;;;;21.27;46.48;100080.97;5026219;28;20040;-72
2022/09/26 05:59:01;;;;;;;1.58;1.27;;;;;;;21.34;46.55;100094.97;5031464;28;20049;-73
2022/09/26 06:01:45;;;;;;;2.28;1.10;;;;;;;21.30;46.66;100089.28;5032436;28;20126;-72
2022/09/26 06:04:24;;;;;;;1.40;1.30;;;;;;;21.36;46.39;100080.53;5015987;28;20128;-72
2022/09/26 06:07:15;;;;;;;2.75;1.23;;;;;;;21.36;46.50;100085.00;5035588;28;21741;-72
2022/09/26 06:09:40;;;;;;;1.08;0.98;;;;;;;21.35;46.73;100075.44;5033180;28;20033;-72
2022/09/26 06:12:33;;;;;;;1.10;1.00;;;;;;;21.36;46.33;100075.25;5029507;28;20056;-71
2022/09/26 06:14:59;;;;;;;1.20;1.10;;;;;;;21.38;46.31;100067.91;5014225;28;20084;-71
2022/09/26 06:17:25;;;;;;;1.08;1.02;;;;;;;21.34;46.48;100061.38;5034346;28;20106;-71
2022/09/26 06:19:51;;;;;;;1.20;1.10;;;;;;;21.36;46.21;100059.34;5015631;28;20040;-71
2022/09/26 06:22:18;;;;;;;1.30;1.20;;;;;;;21.33;46.65;100054.44;5014194;28;20041;-71
2022/09/26 06:24:43;;;;;;;1.17;1.08;;;;;;;21.35;46.29;100049.75;5013361;28;20068;-71
2022/09/26 06:27:13;;;;;;;1.30;1.20;;;;;;;21.35;46.29;100044.47;5022222;28;20039;-71
2022/09/26 06:29:38;;;;;;;3.00;1.30;;;;;;;21.34;46.58;100040.19;5011822;28;20033;-71
2022/09/26 06:32:04;;;;;;;1.85;1.20;;;;;;;21.36;46.22;100046.13;5013735;28;20102;-71
2022/09/26 06:35:08;;;;;;;1.67;1.17;;;;;;;21.31;46.29;100026.56;4991695;28;20049;-72
2022/09/26 06:37:43;;;;;;;1.40;1.30;;;;;;;21.34;46.61;100026.13;4989039;28;20070;-71
2022/09/26 06:40:10;;;;;;;2.42;1.27;;;;;;;21.32;46.37;100025.53;5009304;28;20045;-72
2022/09/26 06:42:37;;;;;;;1.17;1.08;;;;;;;21.31;46.34;100021.25;5015493;28;20033;-71
2022/09/26 06:45:32;;;;;;;2.25;1.50;;;;;;;21.31;46.81;100023.91;5014745;28;20069;-71
2022/09/26 06:48:10;;;;;;;1.45;1.20;;;;;;;21.32;46.49;100015.75;5013809;28;20609;-71
2022/09/26 06:50:59;;;;;;;1.25;1.15;;;;;;;21.34;46.42;100010.25;5033206;28;20041;-71
2022/09/26 06:53:26;;;;;;;0.70;0.70;;;;;;;21.29;46.44;99997.63;5013789;28;20166;-71
2022/09/26 06:55:54;;;;;;;1.63;1.23;;;;;;;21.33;46.43;100006.78;5026648;28;20562;-71
2022/09/26 06:58:19;;;;;;;1.30;1.20;;;;;;;21.31;46.33;100010.66;5012606;28;20043;-71
2022/09/26 07:01:14;;;;;;;1.67;1.20;;;;;;;21.30;46.37;100001.09;5025113;28;20443;-71
2022/09/26 07:03:39;;;;;;;1.58;1.38;;;;;;;21.30;46.42;100003.75;5033302;28;20045;-70
2022/09/26 07:06:22;;;;;;;2.30;1.25;;;;;;;21.30;46.36;99995.78;5034707;28;20060;-71
2022/09/26 07:08:51;;;;;;;1.90;1.33;;;;;;;21.32;46.30;99993.75;5032454;28;20033;-70
2022/09/26 07:11:19;;;;;;;1.52;1.42;;;;;;;21.32;46.44;99986.63;5012632;28;20147;-70
2022/09/26 07:13:45;;;;;;;1.02;1.00;;;;;;;21.32;46.29;99981.31;5014353;28;20029;-70
2022/09/26 07:16:12;;;;;;;1.48;1.38;;;;;;;21.32;46.33;99978.66;5027362;28;20037;-71
2022/09/26 07:18:55;;;;;;;1.65;1.30;;;;;;;21.32;46.67;99977.88;5024909;28;20061;-71
2022/09/26 07:21:39;;;;;;;1.15;1.15;;;;;;;21.30;46.44;99977.25;5030602;28;20080;-70
2022/09/26 07:24:12;;;;;;;1.50;1.30;;;;;;;21.28;46.54;99960.78;5016011;28;20071;-70
2022/09/26 07:26:42;;;;;;;1.70;1.25;;;;;;;21.29;46.67;99968.50;5011985;28;20048;-71
2022/09/26 07:29:08;;;;;;;1.50;1.40;;;;;;;21.24;46.40;99954.25;5013696;28;20166;-71
2022/09/26 07:31:35;;;;;;;1.65;1.17;;;;;;;21.30;46.72;99956.88;5012512;28;20047;-71
2022/09/26 07:34:04;;;;;;;1.17;1.15;;;;;;;21.28;46.46;99947.53;5029079;28;20045;-70
2022/09/26 07:36:30;;;;;;;1.40;1.20;;;;;;;21.28;46.65;99950.19;5017794;28;20119;-71
2022/09/26 07:38:57;;;;;;;1.48;1.25;;;;;;;21.32;46.32;99951.38;5017810;28;20029;-71
2022/09/26 07:41:22;;;;;;;1.38;1.20;;;;;;;21.32;46.52;99946.91;5018379;28;20557;-71
2022/09/26 07:43:48;;;;;;;1.50;1.40;;;;;;;21.31;46.35;99934.69;5032582;28;20784;-69
2022/09/26 07:52:04;;;;;;;2.00;1.52;;;;;;;21.32;46.60;99930.19;5025596;28;20057;-71
2022/09/26 07:54:43;;;;;;;2.20;1.38;;;;;;;21.32;46.52;99931.00;5018241;28;20045;-71
2022/09/26 07:57:23;;;;;;;1.30;1.20;;;;;;;21.35;46.25;99924.47;5014046;28;20037;-71
2022/09/26 08:00:13;;;;;;;1.35;1.25;;;;;;;21.34;46.20;99922.84;5016731;28;20029;-72
2022/09/26 08:03:00;;;;;;;1.30;1.20;;;;;;;21.35;46.27;99914.69;5015090;28;20030;-71
2022/09/26 08:05:25;;;;;;;1.58;1.27;;;;;;;21.33;46.32;99908.78;5018210;28;20127;-71
2022/09/26 08:07:51;;;;;;;1.80;1.30;;;;;;;21.35;46.62;99905.94;5014615;28;20037;-71
2022/09/26 08:10:35;;;;;;;3.03;1.35;;;;;;;21.30;46.33;99906.56;5031992;28;20061;-71
2022/09/26 08:13:19;;;;;;;1.65;1.48;;;;;;;21.33;46.54;99908.00;5019421;28;20091;-73
2022/09/26 08:16:04;;;;;;;1.35;0.95;;;;;;;21.35;46.53;99890.84;5034082;28;20045;-71
2022/09/26 08:18:32;;;;;;;1.27;1.17;;;;;;;21.34;46.47;99886.59;5028275;28;20033;-71
2022/09/26 08:20:57;;;;;;;2.33;1.73;;;;;;;21.37;46.62;99894.13;5028787;28;20037;-69
2022/09/26 08:23:23;;;;;;;1.52;1.42;;;;;;;21.36;46.46;99881.91;5032021;28;20037;-69
2022/09/26 08:26:09;;;;;;;1.10;1.10;;;;;;;21.30;46.57;99872.16;5030676;28;20045;-69
2022/09/26 08:28:47;;;;;;;2.72;1.30;;;;;;;21.38;46.24;99879.88;5017523;28;20053;-71
2022/09/26 08:31:13;;;;;;;3.58;1.50;;;;;;;21.36;46.21;99873.13;5011269;28;20524;-71
2022/09/26 08:33:39;;;;;;;1.83;1.30;;;;;;;21.35;46.38;99869.66;5020988;28;20041;-70
2022/09/26 08:36:07;;;;;;;1.20;1.10;;;;;;;21.36;46.42;99875.78;5018988;28;20131;-70
2022/09/26 08:38:49;;;;;;;1.63;1.48;;;;;;;21.36;46.39;99859.88;5017961;28;20029;-70
2022/09/26 08:41:51;;;;;;;1.85;1.25;;;;;;;21.36;46.49;99852.78;5040028;28;20137;-69
2022/09/26 08:46:23;;;;;;;2.00;1.60;;;;;;;21.34;46.26;99848.69;5031749;28;20764;-69
2022/09/26 08:48:35;;;;;;;1.98;1.20;;;;;;;21.32;46.47;99840.97;5037444;28;20060;-69
2022/09/26 08:51:41;;;;;;;2.00;1.20;;;;;;;21.36;46.55;99842.19;5026529;28;20043;-70
2022/09/26 08:54:35;;;;;;;1.75;1.02;;;;;;;21.36;46.46;99834.25;5022893;28;20364;-69
2022/09/26 08:57:12;;;;;;;2.00;1.15;;;;;;;21.37;46.47;99822.63;5002568;28;20033;-71
2022/09/26 08:59:42;;;;;;;1.23;1.10;;;;;;;21.35;46.28;99842.38;5018278;28;20033;-69
2022/09/26 09:02:38;;;;;;;2.80;1.33;;;;;;;21.36;46.46;99834.25;5019233;28;20095;-70
2022/09/26 09:05:18;;;;;;;0.93;0.88;;;;;;;21.34;46.39;99843.41;5019618;28;21678;-70
2022/09/26 09:07:48;;;;;;;2.67;1.20;;;;;;;21.32;46.43;99827.72;5029139;28;20057;-70
2022/09/26 09:10:17;;;;;;;1.40;1.30;;;;;;;21.38;46.10;99834.84;5034214;28;20490;-70
2022/09/26 09:13:13;;;;;;;2.35;1.40;;;;;;;21.36;46.12;99825.47;5016996;28;20040;-69
2022/09/26 09:16:02;;;;;;;;;;;;;;;21.35;46.15;99819.34;5019823;28;20103;-69
2022/09/26 09:19:24;;;;;;;3.17;1.35;;;;;;;21.34;46.21;99824.88;5012935;28;19917;-69
2022/09/26 09:22:46;;;;;;;1.90;1.50;;;;;;;21.37;46.26;99814.69;5037425;28;20051;-69
2022/09/26 09:25:22;;;;;;;2.47;1.80;;;;;;;21.37;46.08;99819.97;5030086;28;20036;-69
2022/09/26 09:28:16;;;;;;;1.63;1.50;;;;;;;21.35;46.03;99810.59;5034937;28;20033;-69
2022/09/26 09:30:59;;;;;;;1.40;1.20;;;;;;;21.36;46.26;99813.06;5016912;28;20079;-71
2022/09/26 09:33:46;;;;;;;1.67;1.33;;;;;;;21.38;46.25;99808.34;5034474;28;20052;-69
2022/09/26 09:36:40;;;;;;;1.60;1.27;;;;;;;21.35;46.34;99808.75;5036224;28;20040;-69
2022/09/26 09:39:33;;;;;;;1.90;1.20;;;;;;;21.37;46.04;99800.63;5037642;28;20041;-68
2022/09/26 09:42:22;;;;;;;2.25;1.55;;;;;;;21.38;46.26;99802.25;5033220;28;20029;-69
2022/09/26 09:44:52;;;;;;;1.48;1.10;;;;;;;21.39;46.17;99788.78;5015867;28;20040;-69
2022/09/26 09:47:18;;;;;;;2.33;1.60;;;;;;;21.36;46.10;99783.94;5019605;28;20043;-68
2022/09/26 09:49:46;;;;;;;1.42;1.30;;;;;;;21.37;46.30;99792.69;5019342;28;20025;-69
2022/09/26 09:52:24;;;;;;;1.58;1.40;;;;;;;21.36;46.00;99791.03;5030428;28;20029;-68
2022/09/26 09:54:52;;;;;;;2.10;1.65;;;;;;;21.38;46.15;99794.31;5020836;28;20041;-69
2022/09/26 09:57:49;;;;;;;2.05;1.45;;;;;;;21.36;46.03;99786.59;5019652;28;20063;-69
2022/09/26 10:00:21;;;;;;;1.60;1.50;;;;;;;21.35;46.26;99784.13;5033161;28;20897;-69
2022/09/26 10:03:36;;;;;;;1.45;1.35;;;;;;;21.33;46.08;99779.03;5034225;28;20054;-69
2022/09/26 10:06:03;;;;;;;2.25;1.48;;;;;;;21.37;46.18;99772.31;5019630;28;20021;-70
2022/09/26 10:08:41;;;;;;;1.85;1.33;;;;;;;21.36;46.16;99769.84;5019878;28;20706;-70
2022/09/26 10:11:40;;;;;;;2.65;1.65;;;;;;;21.33;46.28;99771.09;5036516;28;20142;-71
2022/09/26 10:14:41;;;;;;;2.03;1.50;;;;;;;21.36;46.01;99768.03;5035653;28;20582;-70
2022/09/26 10:17:09;;;;;;;1.40;1.30;;;;;;;21.35;45.88;99768.22;5033870;28;20123;-69
2022/09/26 10:19:55;;;;;;;2.20;1.60;;;;;;;21.38;46.13;99770.47;5021277;28;20039;-69
2022/09/26 10:22:34;;;;;;;1.42;1.30;;;;;;;21.37;46.14;99766.22;5029611;28;20403;-71
2022/09/26 10:25:14;;;;;;;2.78;1.85;;;;;;;21.36;46.11;99759.25;5013853;28;20144;-69
2022/09/26 10:27:51;;;;;;;2.15;1.60;;;;;;;21.40;45.99;99761.28;5011294;28;20041;-71
2022/09/26 10:30:17;;;;;;;1.77;1.65;;;;;;;21.40;45.92;99763.94;4993361;28;20052;-70
2022/09/26 10:32:46;;;;;;;3.00;1.58;;;;;;;21.39;45.93;99754.38;4994484;28;20048;-70
2022/09/26 10:35:42;;;;;;;1.85;1.40;;;;;;;21.38;46.20;99744.81;4981846;28;20156;-69
2022/09/26 10:38:28;;;;;;;1.48;1.38;;;;;;;21.38;46.00;99742.16;4996510;28;20062;-69
2022/09/26 10:41:24;;;;;;;1.77;1.40;;;;;;;21.37;46.08;99743.19;4995634;28;20402;-69
2022/09/26 10:43:55;;;;;;;1.60;1.50;;;;;;;21.38;46.05;99738.69;5002739;28;20566;-70
2022/09/26 10:46:45;;;;;;;2.05;1.60;;;;;;;21.37;46.07;99739.72;4992935;28;20054;-69
2022/09/26 10:49:49;;;;;;;2.17;1.50;;;;;;;21.39;45.96;99741.13;4991840;28;20081;-70
2022/09/26 10:52:42;;;;;;;2.17;1.42;;;;;;;21.38;46.07;99730.75;4991623;28;20048;-69
2022/09/26 10:55:15;;;;;;;2.58;1.60;;;;;;;21.36;46.16;99727.47;5005839;28;20730;-69
2022/09/26 10:58:04;;;;;;;5.88;2.45;;;;;;;21.37;46.32;99723.84;5005002;28;20034;-70
2022/09/26 11:00:37;;;;;;;1.55;1.40;;;;;;;21.36;46.17;99724.84;4990606;28;20056;-69
2022/09/26 11:03:12;;;;;;;2.10;1.90;;;;;;;21.40;46.13;99726.84;4990576;28;20141;-70
2022/09/26 11:05:58;;;;;;;2.13;1.70;;;;;;;21.37;45.98;99726.47;4994798;28;20069;-69
2022/09/26 11:08:34;;;;;;;3.35;2.08;;;;;;;21.35;46.03;99729.31;4993394;28;20488;-69
2022/09/26 11:11:26;;;;;;;2.47;1.50;;;;;;;21.36;46.30;99722.19;4975823;28;20073;-69
2022/09/26 11:14:07;;;;;;;;;;;;;;;21.37;46.25;99726.47;4992876;28;20120;-69
2022/09/26 11:16:42;;;;;;;2.47;1.98;;;;;;;21.38;45.96;99720.16;5005246;28;19971;-69
2022/09/26 11:19:26;;;;;;;2.28;2.08;;;;;;;21.38;46.21;99702.44;4989158;28;20042;-69
2022/09/26 11:22:26;;;;;;;2.75;1.65;;;;;;;21.33;46.17;99706.72;4993798;28;20052;-69
2022/09/26 11:25:29;;;;;;;2.45;1.60;;;;;;;21.35;45.81;99716.06;4991661;28;20033;-69
2022/09/26 11:28:01;;;;;;;2.38;1.75;;;;;;;21.36;45.99;99709.78;4920503;28;20045;-70
2022/09/26 11:30:47;;;;;;;2.03;1.67;;;;;;;21.37;46.23;99702.66;4987713;28;20045;-69
2022/09/26 11:33:17;;;;;;;3.45;2.00;;;;;;;21.35;46.18;99697.53;5003586;28;20028;-69
2022/09/26 11:36:22;;;;;;;2.67;1.60;;;;;;;21.35;45.99;99686.13;4988086;28;20065;-69
2022/09/26 11:39:01;;;;;;;1.50;1.40;;;;;;;21.35;46.09;99692.25;5006026;28;20057;-69
2022/09/26 11:41:53;;;;;;;2.90;2.07;;;;;;;21.34;46.09;99687.97;5001784;28;20096;-69
2022/09/26 11:44:46;;;;;;;2.42;2.10;;;;;;;21.46;45.92;99690.75;4988439;28;20431;-68
2022/09/26 11:47:41;;;;;;;2.58;1.95;;;;;;;21.42;45.96;99681.63;4950837;28;20130;-71
2022/09/26 11:50:20;;;;;;;2.22;1.58;;;;;;;21.44;45.87;99679.56;4984424;28;20034;-71
2022/09/26 11:53:45;;;;;;;2.22;1.83;;;;;;;21.60;45.41;99678.19;4992740;28;20098;-70
2022/09/26 11:56:38;;;;;;;1.75;1.60;;;;;;;21.80;44.82;99670.03;4993799;28;20087;-70
2022/09/26 11:59:51;;;;;;;3.17;1.73;;;;;;;22.02;44.67;99669.38;4992322;28;20095;-70
2022/09/26 12:02:35;;;;;;;2.10;1.60;;;;;;;22.06;44.59;99674.25;4923892;28;20060;-70
2022/09/26 12:05:29;;;;;;;2.78;1.40;;;;;;;22.17;44.28;99663.72;4999833;28;20148;-70
2022/09/26 12:08:16;;;;;;;3.47;1.77;;;;;;;22.28;44.12;99660.31;4974529;28;20056;-70
2022/09/26 12:11:16;;;;;;;2.83;1.70;;;;;;;22.28;43.93;99662.16;4992365;28;20034;-70
2022/09/26 12:13:54;;;;;;;2.63;1.80;;;;;;;22.31;43.87;99661.72;4988984;28;20508;-69
2022/09/26 12:16:50;;;;;;;2.38;1.55;;;;;;;22.38;43.69;99648.34;4994794;28;20045;-68
2022/09/26 12:19:19;;;;;;;3.67;1.60;;;;;;;22.38;43.83;99656.31;4963251;28;20496;-69
2022/09/26 12:25:21;;;;;;;2.27;1.53;;;;;;;22.48;43.68;99641.50;4988662;28;20295;-68
2022/09/26 12:28:11;;;;;;;2.83;1.85;;;;;;;22.53;43.21;99638.97;4975054;28;20176;-69